»·PEaware :: TPX663 KPSP-KLAS

TPX663 :: KPSP-KLAS

FLIGHT INFORMATION

Flight Status: Arrived
Operator: ATP Experience
More flights by this operator :: More flights under this callsign
Pilot: Dave P. (45)
Aircraft: BOEING 737-800
(B738)
More flights by this aircraft type
Origin: KPSP Palm Springs Intl
United States
Destination: KLAS McCarran Intl
United States
More flights between these airports :: More routes between these airports
Route: PSP V370 TNP KEPEC6
File this flight plan on PilotEdge
Remarks: RMK / SIMBRIEF
Altitude:
(Current/Filed)
27,000ft
Speed:
(Current/Filed)
459kts
Departed: 11-May-19 08:15 AM
Arrived: 11-May-19 08:55 AM
Distance/Time
Traveled:
151nm/0:40
Distance/Time
To Go:
Arrived

Flight Plot

Page will automatically refresh every two minutes.

Flight plan parsing failed; only flown route is shown


Map Options




Map Legend


Flown Route
Filed Route
Departure Airport
Arrival Airport
Navaid (VOR, NDB)
Fix

Horizontal Profiles

Position Reports

Time Latitude Longitude Heading Altitude Ground
Speed
11-May-19 07:51 33.823122 -116.505783 285 485ft 0kts
11-May-19 07:52 33.823122 -116.505783 285 485ft 0kts
11-May-19 07:53 33.823122 -116.505783 285 485ft 0kts
11-May-19 07:54 33.823122 -116.505783 285 485ft 0kts
11-May-19 07:55 33.823122 -116.505783 285 485ft 0kts
11-May-19 07:56 33.823122 -116.505783 285 485ft 0kts
11-May-19 07:57 33.823122 -116.505783 285 485ft 0kts
11-May-19 07:58 33.823122 -116.505783 285 485ft 0kts
11-May-19 07:59 33.823122 -116.505783 285 485ft 0kts
11-May-19 08:00 33.823122 -116.505783 285 485ft 0kts
11-May-19 08:01 33.823122 -116.505783 285 485ft 0kts
11-May-19 08:02 33.823122 -116.505783 285 485ft 0kts
11-May-19 08:03 33.823122 -116.505783 285 485ft 0kts
11-May-19 08:04 33.823122 -116.505783 285 485ft 0kts
11-May-19 08:05 33.823122 -116.505783 285 485ft 0kts
11-May-19 08:06 33.823122 -116.505783 285 485ft 0kts
11-May-19 08:07 33.823122 -116.505783 285 485ft 0kts
11-May-19 08:08 33.822926 -116.505297 316 485ft 2kts
11-May-19 08:09 33.822491 -116.505071 354 485ft 0kts
11-May-19 08:10 33.822492 -116.505071 354 485ft 0kts
11-May-19 08:11 33.822042 -116.502923 143 485ft 21kts
11-May-19 08:12 33.818526 -116.499269 89 485ft 7kts
11-May-19 08:13 33.818740 -116.498113 23 485ft 7kts
11-May-19 08:14 33.826224 -116.504602 323 485ft 125kts
11-May-19 08:15 33.862708 -116.537923 322 2633ft 184kts
11-May-19 08:16 33.915859 -116.532712 61 4701ft 244kts
11-May-19 08:17 33.899715 -116.455258 96 7651ft 268kts
11-May-19 08:18 33.921424 -116.367879 69 10555ft 283kts
11-May-19 08:19 33.953037 -116.269447 70 12007ft 348kts
11-May-19 08:20 33.988808 -116.157511 70 14701ft 366kts
11-May-19 08:21 34.026389 -116.041031 70 17383ft 381kts
11-May-19 08:22 34.064978 -115.919592 70 19833ft 394kts
11-May-19 08:23 34.106135 -115.794514 62 22050ft 408kts
11-May-19 08:24 34.182924 -115.690388 44 23649ft 424kts
11-May-19 08:25 34.270052 -115.592579 44 25600ft 430kts
11-May-19 08:26 34.369200 -115.511372 24 27026ft 439kts
11-May-19 08:27 34.483503 -115.460883 21 27032ft 435kts
11-May-19 08:28 34.597467 -115.411374 21 27023ft 435kts
11-May-19 08:29 34.711417 -115.361452 21 27010ft 430kts
11-May-19 08:30 34.826020 -115.348865 348 27006ft 423kts
11-May-19 08:31 34.937635 -115.389996 344 25061ft 415kts
11-May-19 08:32 35.046164 -115.432228 343 23125ft 404kts
11-May-19 08:33 35.151947 -115.473493 343 21231ft 394kts
11-May-19 08:34 35.254785 -115.513708 343 19400ft 383kts
11-May-19 08:35 35.355023 -115.553089 343 17590ft 373kts
11-May-19 08:36 35.452629 -115.591409 343 15808ft 365kts
11-May-19 08:37 35.548167 -115.629184 343 14093ft 356kts
11-May-19 08:38 35.638020 -115.664802 343 13323ft 324kts
11-May-19 08:39 35.713068 -115.635566 49 13025ft 292kts
11-May-19 08:40 35.777392 -115.576929 9 13028ft 301kts
11-May-19 08:41 35.861315 -115.569750 4 13025ft 302kts
11-May-19 08:42 35.945091 -115.564689 10 13019ft 301kts
11-May-19 08:43 35.996493 -115.491869 72 12250ft 299kts
11-May-19 08:44 36.023995 -115.397776 69 11243ft 278kts
11-May-19 08:46 36.026392 -115.305635 94 10201ft 267kts
11-May-19 08:47 36.019433 -115.214372 94 9147ft 266kts
11-May-19 08:48 36.013304 -115.125013 94 8389ft 247kts
11-May-19 08:49 36.007696 -115.048118 94 7573ft 214kts
11-May-19 08:50 36.002132 -114.975366 94 6287ft 210kts
11-May-19 08:51 36.029375 -114.934134 328 5042ft 202kts
11-May-19 08:52 36.065074 -114.985315 312 4866ft 187kts
11-May-19 08:53 36.073759 -115.047492 271 3421ft 180kts
11-May-19 08:54 36.073688 -115.107277 271 2498ft 164kts
11-May-19 08:55 36.074046 -115.144279 290 2189ft 14kts
11-May-19 08:56 36.075899 -115.146562 359 2189ft 20kts
11-May-19 08:57 36.078420 -115.145472 94 2189ft 14kts
11-May-19 08:58 36.078271 -115.140739 89 2189ft 11kts
11-May-19 08:59 36.080221 -115.138716 343 2189ft 7kts
11-May-19 09:00 36.080464 -115.138803 344 2189ft 0kts
11-May-19 09:01 36.080464 -115.138803 344 2189ft 0kts
11-May-19 09:02 36.080464 -115.138803 344 2189ft 0kts
11-May-19 09:03 36.080464 -115.138803 344 2189ft 0kts

Navigation Log

Ident Type
Flight plan parsing failed, navigation log unavailable